ROMMA est une association bénévole à but non lucratif. Votre soutien est indispensable : ADHERER à ROMMA ou FAIRE un DON

Die - (26, Drôme)

Diois (400 m)   Longitude: 5° 21' 55"E   Latitude: 44° 45' 16"N Station partenaire n°159
 

Détail journalier du     <<     >>

Température Precipitation Humidité Pression Vent Dir Rafale Dir. rafale Ensol.
Heure (°C) (mm) (%) (hPa) (km/h) (km/h) (min)
01:00 5.2091101703SE0
02:00 4.3092101703SE0
03:00 3.7093101703SE0
04:00 3.2094101703SE0
05:00 3.109410171ESE5ESE0
06:00 2.20941017000
07:00 1.90941017000
08:00 1.5094101703NO0
09:00 3.1096101703NO0
10:00 6.209310181S5S0
11:00 9.407910182SSE5S0
12:00 10.407410182S8ONO0
13:00 14.805510162SO6SSO30
14:00 16.405010152ESE6ESE0
15:00 16.705110152ONO10ONO0
16:00 19.304910143ONO10NO30
17:00 19.305710137ONO18NO60
18:00 18.406010136ONO18NO30
19:00 16.706510132N8N30
20:00 15.506910142N6NO0
21:00 14.807210142NNO6NO0
22:00 15.007110142N10NO0
23:00 15.606710144N13NNO0
minuit 15.806410154ONO13ONO0

Graphique du 04-10-2019

 

Serveur OMMA